Time;durP1;ratioP1;P1;durP2;ratioP2;P2;SDS_P1;SDS_P2;PMS_P1;PMS_P2;Temp;Humidity;BMP_temperature;BMP_pressure;BME280_temperature;BME280_humidity;BME280_pressure;Samples;Min_cycle;Max_cycle;Signal;HPM_P1;HPM_P2
2022/01/26 00:07:17;;;;;;;75.60;34.65;;;6.40;59.90;;;;;;6155186;23;20021;-61
2022/01/26 00:09:44;;;;;;;73.07;34.50;;;6.40;60.00;;;;;;6145405;23;20249;-61
2022/01/26 00:12:10;;;;;;;71.07;33.65;;;6.30;60.00;;;;;;6143134;23;20001;-61
2022/01/26 00:14:41;;;;;;;72.70;35.03;;;6.20;60.20;;;;;;6145111;23;20001;-61
2022/01/26 00:17:07;;;;;;;74.22;33.85;;;6.20;60.50;;;;;;6144497;23;20304;-61
2022/01/26 00:19:49;;;;;;;84.78;36.47;;;6.10;60.80;;;;;;6145742;23;20025;-62
2022/01/26 00:22:34;;;;;;;76.28;35.20;;;6.10;61.10;;;;;;6145654;23;20017;-61
2022/01/26 00:25:20;;;;;;;74.07;33.75;;;6.00;61.40;;;;;;6145282;23;20446;-61
2022/01/26 00:28:08;;;;;;;74.13;33.88;;;5.90;61.70;;;;;;6144520;23;20016;-61
2022/01/26 00:38:53;;;;;;;72.40;33.22;;;5.90;62.00;;;;;;6154713;23;20020;-61
2022/01/26 00:41:32;;;;;;;72.07;34.60;;;5.90;62.10;;;;;;6144958;23;20005;-61
2022/01/26 00:43:59;;;;;;;73.88;33.40;;;6.00;62.20;;;;;;6153668;23;20466;-61
2022/01/26 00:46:25;;;;;;;77.05;33.03;;;6.10;62.10;;;;;;6144747;23;20056;-60
2022/01/26 00:48:52;;;;;;;65.18;32.20;;;6.10;61.80;;;;;;6143958;23;19994;-61
2022/01/26 00:51:21;;;;;;;74.00;32.75;;;6.10;61.40;;;;;;6144594;23;20010;-61
2022/01/26 00:54:00;;;;;;;75.30;33.40;;;6.10;61.30;;;;;;6144604;23;20334;-60
2022/01/26 00:56:26;;;;;;;81.90;35.22;;;6.10;61.10;;;;;;6154167;23;20268;-60
2022/01/26 00:58:54;;;;;;;82.18;34.72;;;6.10;60.90;;;;;;6143157;23;20418;-60
2022/01/26 01:01:20;;;;;;;70.68;32.55;;;6.10;61.00;;;;;;6144227;23;20032;-60
2022/01/26 01:03:47;;;;;;;83.25;34.75;;;6.10;61.20;;;;;;6145283;23;19998;-61
2022/01/26 01:06:22;;;;;;;82.07;33.38;;;6.10;61.10;;;;;;6143876;23;19998;-61
2022/01/26 01:08:49;;;;;;;78.55;32.85;;;6.10;61.10;;;;;;6142490;23;20012;-61
2022/01/26 01:11:15;;;;;;;79.80;34.30;;;6.10;60.80;;;;;;6145381;23;20010;-61
2022/01/26 01:13:43;;;;;;;74.65;31.85;;;6.10;60.90;;;;;;6143181;23;20450;-61
2022/01/26 01:16:17;;;;;;;80.18;32.30;;;6.10;60.90;;;;;;6143019;23;20227;-61
2022/01/26 01:18:50;;;;;;;81.40;33.95;;;6.20;61.00;;;;;;6145102;23;20028;-61
2022/01/26 01:21:53;;;;;;;88.85;34.80;;;6.10;60.90;;;;;;6144512;23;20331;-61
2022/01/26 01:26:57;;;;;;;84.18;34.03;;;6.10;61.10;;;;;;6152965;23;20009;-61
2022/01/26 01:29:27;;;;;;;84.35;35.03;;;6.10;61.20;;;;;;6153573;23;20338;-61
2022/01/26 01:31:57;;;;;;;74.82;31.20;;;6.20;61.30;;;;;;6144433;23;20009;-61
2022/01/26 01:34:35;;;;;;;79.35;32.13;;;6.20;61.30;;;;;;6143856;23;20005;-61
2022/01/26 01:37:06;;;;;;;81.22;32.47;;;6.20;62.00;;;;;;6141882;23;20001;-61
2022/01/26 01:39:34;;;;;;;81.18;32.72;;;6.20;62.00;;;;;;6145328;23;20012;-61
2022/01/26 01:42:02;;;;;;;78.70;32.70;;;6.20;61.30;;;;;;6144899;23;20002;-61
2022/01/26 01:44:28;;;;;;;86.95;31.88;;;6.20;61.30;;;;;;6142531;23;20341;-61
2022/01/26 01:46:56;;;;;;;76.18;32.33;;;6.20;61.30;;;;;;6142388;23;20008;-61
2022/01/26 01:49:23;;;;;;;85.30;33.67;;;6.20;61.30;;;;;;6144986;23;20335;-61
2022/01/26 01:51:57;;;;;;;84.80;33.70;;;6.20;61.30;;;;;;6143780;23;20437;-61
2022/01/26 01:54:23;;;;;;;83.15;33.47;;;6.20;61.30;;;;;;6143948;23;20020;-61
2022/01/26 01:56:56;;;;;;;78.80;32.63;;;6.20;61.20;;;;;;6143108;23;20012;-61
2022/01/26 01:59:25;;;;;;;79.13;32.88;;;6.20;61.20;;;;;;6152551;23;20335;-61
2022/01/26 02:01:51;;;;;;;74.43;32.67;;;6.20;61.10;;;;;;6144299;23;20454;-60
2022/01/26 02:04:18;;;;;;;75.18;30.58;;;6.20;60.90;;;;;;6142593;23;20013;-61
2022/01/26 02:06:44;;;;;;;81.93;31.70;;;6.20;60.70;;;;;;6141837;23;20435;-61
2022/01/26 02:09:11;;;;;;;84.25;32.40;;;6.20;60.50;;;;;;6141665;23;20008;-61
2022/01/26 02:11:49;;;;;;;93.00;35.92;;;6.20;60.60;;;;;;6142811;23;19994;-61
2022/01/26 02:14:23;;;;;;;76.13;33.05;;;6.20;60.70;;;;;;6141926;23;20009;-61
2022/01/26 02:17:00;;;;;;;75.53;32.80;;;6.20;60.70;;;;;;6143371;23;20020;-61
2022/01/26 02:55:54;;;;;;;71.13;29.00;;;6.20;61.10;;;;;;6140178;23;20016;-61
2022/01/26 03:00:59;;;;;;;73.05;31.52;;;6.20;60.90;;;;;;6153803;23;20455;-61
2022/01/26 03:03:35;;;;;;;72.78;31.00;;;6.10;60.90;;;;;;6142967;23;20013;-61
2022/01/26 03:06:07;;;;;;;72.22;31.02;;;6.10;60.80;;;;;;6146018;23;20330;-61
2022/01/26 03:08:40;;;;;;;69.45;31.58;;;6.10;60.80;;;;;;6153411;23;20001;-61
2022/01/26 03:11:10;;;;;;;80.22;31.75;;;6.10;60.80;;;;;;6154505;23;19997;-61
2022/01/26 03:13:41;;;;;;;70.53;31.48;;;6.10;60.80;;;;;;6142529;23;19998;-61
2022/01/26 03:16:20;;;;;;;70.28;32.33;;;6.10;60.80;;;;;;6143550;23;20057;-61
2022/01/26 03:21:47;;;;;;;70.93;31.23;;;6.10;60.70;;;;;;6155281;23;20022;-61
2022/01/26 03:29:57;;;;;;;78.05;32.70;;;6.10;60.80;;;;;;6152539;23;20013;-61
2022/01/26 03:32:50;;;;;;;77.75;32.22;;;6.10;61.50;;;;;;6143449;23;20016;-61
2022/01/26 03:35:18;;;;;;;76.13;30.92;;;6.10;60.70;;;;;;6143278;23;20454;-61
2022/01/26 03:37:52;;;;;;;69.53;31.77;;;6.10;60.60;;;;;;6143864;23;20355;-61
2022/01/26 03:40:19;;;;;;;70.35;31.02;;;6.10;60.50;;;;;;6144855;23;20001;-61
2022/01/26 03:42:46;;;;;;;74.13;32.40;;;6.10;60.60;;;;;;6142632;23;20005;-61
2022/01/26 03:45:12;;;;;;;71.20;31.33;;;6.10;60.70;;;;;;6142667;23;20521;-61
2022/01/26 03:47:38;;;;;;;69.28;31.85;;;6.10;60.70;;;;;;6142372;23;20434;-61
2022/01/26 03:50:05;;;;;;;71.82;31.77;;;6.10;60.70;;;;;;6143170;23;20415;-61
2022/01/26 03:52:31;;;;;;;74.57;31.08;;;6.10;60.60;;;;;;6142520;23;20034;-61
2022/01/26 03:54:57;;;;;;;68.38;30.58;;;6.10;60.50;;;;;;6143733;23;20006;-61
2022/01/26 03:57:23;;;;;;;75.10;31.25;;;6.10;60.30;;;;;;6141654;23;20006;-62
2022/01/26 03:59:49;;;;;;;74.15;31.30;;;6.10;60.20;;;;;;6142370;23;20009;-61
2022/01/26 04:02:16;;;;;;;83.07;31.10;;;6.10;60.30;;;;;;6145202;23;20009;-61
2022/01/26 04:04:48;;;;;;;69.55;31.77;;;6.00;60.20;;;;;;6143785;23;20028;-61
2022/01/26 04:07:14;;;;;;;70.70;29.55;;;6.00;60.00;;;;;;6143848;23;20018;-61
2022/01/26 04:09:40;;;;;;;69.07;29.23;;;6.00;60.00;;;;;;6143392;23;20005;-61
2022/01/26 04:12:07;;;;;;;65.00;29.63;;;6.00;59.90;;;;;;6145565;23;20434;-62
2022/01/26 04:14:34;;;;;;;60.40;26.85;;;6.00;59.90;;;;;;6142727;23;20005;-61
2022/01/26 04:17:01;;;;;;;65.05;28.88;;;5.90;59.90;;;;;;6143975;23;20016;-61
2022/01/26 04:19:30;;;;;;;69.40;31.50;;;6.00;60.00;;;;;;6145907;23;20005;-61
2022/01/26 04:22:09;;;;;;;71.22;31.23;;;5.90;60.10;;;;;;6145948;23;20009;-61
2022/01/26 04:24:44;;;;;;;76.47;31.95;;;5.90;60.10;;;;;;6145531;23;20308;-61
2022/01/26 04:29:39;;;;;;;71.00;29.73;;;6.00;60.20;;;;;;6144571;23;20016;-61
2022/01/26 04:32:07;;;;;;;69.05;31.33;;;6.00;60.10;;;;;;6142723;23;20006;-61
2022/01/26 04:34:35;;;;;;;64.38;29.25;;;6.00;60.20;;;;;;6145048;23;20430;-61
2022/01/26 04:37:15;;;;;;;70.85;31.80;;;6.00;60.10;;;;;;6147425;23;20338;-61
2022/01/26 04:39:48;;;;;;;69.95;30.77;;;6.00;60.00;;;;;;6146332;23;20028;-61
2022/01/26 04:42:26;;;;;;;72.07;31.00;;;6.00;59.80;;;;;;6145550;23;20010;-61
2022/01/26 04:45:02;;;;;;;68.47;31.17;;;6.10;59.70;;;;;;6154634;23;20326;-60
2022/01/26 04:47:28;;;;;;;71.28;32.90;;;6.10;59.70;;;;;;6154951;23;20006;-61
2022/01/26 04:49:55;;;;;;;77.43;34.88;;;6.10;59.70;;;;;;6145214;23;20319;-61
2022/01/26 04:52:21;;;;;;;91.50;37.42;;;6.10;59.60;;;;;;6142721;23;20009;-62
2022/01/26 04:54:47;;;;;;;87.88;38.03;;;6.10;59.40;;;;;;6145058;23;20008;-61
2022/01/26 04:57:13;;;;;;;79.72;37.50;;;6.10;59.10;;;;;;6145886;23;20009;-61
2022/01/26 04:59:39;;;;;;;78.05;36.42;;;6.10;59.10;;;;;;6142552;23;20009;-61
2022/01/26 05:02:05;;;;;;;79.22;35.78;;;6.10;59.30;;;;;;6143196;23;20024;-61
2022/01/26 05:04:32;;;;;;;81.75;36.22;;;6.10;59.40;;;;;;6144473;23;20016;-61
2022/01/26 05:06:58;;;;;;;82.47;36.95;;;6.00;59.30;;;;;;6145421;23;20008;-61
2022/01/26 05:09:24;;;;;;;86.65;38.42;;;6.00;59.30;;;;;;6145868;23;19997;-61
2022/01/26 05:11:53;;;;;;;94.85;37.67;;;6.00;59.40;;;;;;6145743;23;20005;-60
2022/01/26 05:14:19;;;;;;;85.47;37.50;;;6.00;59.40;;;;;;6140395;23;20469;-61
2022/01/26 05:16:46;;;;;;;81.03;36.95;;;6.10;59.50;;;;;;6139670;23;20415;-61
2022/01/26 05:19:12;;;;;;;83.07;38.10;;;6.10;59.40;;;;;;6143304;23;20006;-61
2022/01/26 05:21:40;;;;;;;83.03;36.83;;;6.10;59.40;;;;;;6143587;23;20374;-61
2022/01/26 05:24:07;;;;;;;84.57;38.20;;;6.10;59.30;;;;;;6144478;23;20009;-60
2022/01/26 05:26:33;;;;;;;81.80;36.75;;;6.10;59.40;;;;;;6145107;23;20020;-61
2022/01/26 05:29:00;;;;;;;80.70;35.58;;;6.10;59.20;;;;;;6144524;23;20009;-61
2022/01/26 05:31:26;;;;;;;78.15;33.38;;;6.10;59.10;;;;;;6145489;23;20005;-61
2022/01/26 05:33:54;;;;;;;82.55;36.50;;;6.10;59.10;;;;;;6142320;23;20017;-61
2022/01/26 05:36:20;;;;;;;78.80;34.72;;;6.10;59.20;;;;;;6144438;23;20024;-61
2022/01/26 05:38:46;;;;;;;81.05;34.90;;;6.10;59.30;;;;;;6145260;23;20013;-61
2022/01/26 05:41:13;;;;;;;79.35;35.28;;;6.00;59.30;;;;;;6143497;23;20012;-61
2022/01/26 05:43:39;;;;;;;76.75;34.95;;;6.00;59.20;;;;;;6141170;23;20002;-61
2022/01/26 05:46:14;;;;;;;75.35;33.50;;;6.00;59.20;;;;;;6141312;23;20009;-61
2022/01/26 05:48:44;;;;;;;80.15;32.75;;;6.00;59.40;;;;;;6154302;23;20018;-61
2022/01/26 05:51:12;;;;;;;81.10;33.25;;;5.90;59.40;;;;;;6145335;23;20005;-61
2022/01/26 05:53:40;;;;;;;82.78;34.05;;;6.00;60.20;;;;;;6144038;23;20017;-61
2022/01/26 05:56:07;;;;;;;78.90;32.95;;;5.90;59.60;;;;;;6144777;23;19994;-61
2022/01/26 05:58:33;;;;;;;76.20;32.40;;;5.90;59.70;;;;;;6141348;23;20446;-62
2022/01/26 06:01:01;;;;;;;77.90;32.00;;;5.90;59.80;;;;;;6145068;23;20036;-61
2022/01/26 06:03:29;;;;;;;81.97;33.00;;;5.90;59.80;;;;;;6142481;23;20005;-62
2022/01/26 06:05:55;;;;;;;82.95;33.67;;;5.90;60.10;;;;;;6143916;23;20001;-61
2022/01/26 06:08:23;;;;;;;85.22;33.13;;;5.90;60.20;;;;;;6145120;23;20012;-61
2022/01/26 06:10:50;;;;;;;90.03;34.75;;;5.90;60.30;;;;;;6144867;23;20005;-61
2022/01/26 06:13:17;;;;;;;88.65;35.25;;;5.80;60.30;;;;;;6140929;23;20006;-61
2022/01/26 06:15:44;;;;;;;88.40;34.70;;;5.80;60.50;;;;;;6144213;23;20006;-61
2022/01/26 06:18:11;;;;;;;86.88;35.65;;;5.80;60.70;;;;;;6145783;23;20014;-61
2022/01/26 06:20:38;;;;;;;88.80;34.85;;;5.80;60.90;;;;;;6144882;23;20331;-61
2022/01/26 06:23:05;;;;;;;96.25;35.88;;;5.80;61.00;;;;;;6143483;23;20029;-61
2022/01/26 06:25:32;;;;;;;85.03;34.67;;;5.80;61.00;;;;;;6142838;23;20012;-60
2022/01/26 06:28:00;;;;;;;90.07;35.95;;;5.90;61.20;;;;;;6143807;23;20017;-60
2022/01/26 06:30:27;;;;;;;85.07;33.88;;;5.80;61.20;;;;;;6141242;23;20027;-60
2022/01/26 06:32:55;;;;;;;85.78;31.52;;;5.80;61.20;;;;;;6139490;23;20001;-61
2022/01/26 06:35:21;;;;;;;86.80;34.08;;;5.90;61.30;;;;;;6144715;23;20020;-61
2022/01/26 06:37:47;;;;;;;91.45;34.63;;;5.80;61.30;;;;;;6143843;23;20005;-61
2022/01/26 06:40:14;;;;;;;86.55;33.75;;;5.90;61.40;;;;;;6142162;23;20008;-58
2022/01/26 06:42:59;;;;;;;82.63;33.15;;;5.90;61.30;;;;;;6142621;23;20390;-61
2022/01/26 06:45:32;;;;;;;85.60;33.47;;;5.90;61.30;;;;;;6143020;23;20025;-60
2022/01/26 06:50:41;;;;;;;91.35;35.35;;;5.90;61.30;;;;;;6150979;23;20977;-61
2022/01/26 06:53:07;;;;;;;96.95;34.85;;;5.90;61.20;;;;;;6138938;23;20013;-61
2022/01/26 06:55:35;;;;;;;83.80;34.90;;;5.80;61.20;;;;;;6143041;23;20334;-61
2022/01/26 06:58:01;;;;;;;86.93;33.65;;;5.90;61.40;;;;;;6142342;23;20009;-60
2022/01/26 07:00:27;;;;;;;91.82;34.05;;;5.90;61.30;;;;;;6142021;23;20015;-60
2022/01/26 07:02:54;;;;;;;92.05;34.25;;;5.90;61.40;;;;;;6142818;23;20006;-61
2022/01/26 07:05:22;;;;;;;83.28;31.92;;;5.80;61.50;;;;;;6143419;23;20020;-61
2022/01/26 07:07:49;;;;;;;79.20;31.75;;;5.90;61.50;;;;;;6141498;23;20308;-60
2022/01/26 07:10:15;;;;;;;76.75;30.30;;;5.90;61.30;;;;;;6142479;23;19993;-60
2022/01/26 07:12:41;;;;;;;69.65;29.55;;;5.90;61.10;;;;;;6140988;23;20239;-61
2022/01/26 07:23:22;;;;;;;76.38;30.13;;;5.90;60.80;;;;;;6151019;23;20334;-60
2022/01/26 07:25:49;;;;;;;79.65;33.03;;;5.90;60.80;;;;;;6144298;23;20079;-60
2022/01/26 07:28:16;;;;;;;88.57;35.20;;;5.90;60.70;;;;;;6142049;23;20001;-60
2022/01/26 07:30:43;;;;;;;87.00;35.45;;;5.80;60.60;;;;;;6143266;23;20437;-60
2022/01/26 07:33:09;;;;;;;92.88;35.33;;;5.80;60.60;;;;;;6142554;23;20002;-60
2022/01/26 07:35:35;;;;;;;77.40;32.60;;;5.80;60.60;;;;;;6143455;23;20477;-59
2022/01/26 07:38:03;;;;;;;86.20;34.53;;;5.80;60.70;;;;;;6143017;23;20256;-60
2022/01/26 07:40:30;;;;;;;80.72;33.40;;;5.80;60.50;;;;;;6143010;23;19997;-60
2022/01/26 07:42:56;;;;;;;87.13;35.80;;;5.80;60.60;;;;;;6143043;23;20004;-59
2022/01/26 07:45:23;;;;;;;80.95;33.65;;;5.80;60.50;;;;;;6143655;23;20002;-59
2022/01/26 07:47:53;;;;;;;85.68;35.58;;;5.80;60.40;;;;;;6144145;23;20013;-60
2022/01/26 07:50:21;;;;;;;86.85;34.75;;;5.80;60.40;;;;;;6143424;23;19998;-60
2022/01/26 07:52:47;;;;;;;92.03;34.25;;;5.80;60.50;;;;;;6144365;23;20006;-60
2022/01/26 07:55:17;;;;;;;87.93;34.58;;;5.80;60.50;;;;;;6144406;23;19998;-60
2022/01/26 07:57:45;;;;;;;90.72;35.55;;;5.80;60.50;;;;;;6143288;23;20002;-60
2022/01/26 08:00:12;;;;;;;85.53;35.28;;;5.80;60.60;;;;;;6142081;23;20438;-59
2022/01/26 08:02:38;;;;;;;91.03;37.00;;;5.80;60.70;;;;;;6143949;23;19997;-60
2022/01/26 08:05:05;;;;;;;90.28;34.58;;;5.80;60.70;;;;;;6143357;23;20009;-60
2022/01/26 08:07:31;;;;;;;96.78;36.85;;;5.80;60.60;;;;;;6144207;23;20010;-59
2022/01/26 08:09:58;;;;;;;95.78;37.08;;;5.80;60.70;;;;;;6144263;23;20321;-60
2022/01/26 08:12:24;;;;;;;84.93;35.78;;;5.80;60.60;;;;;;6142459;23;20467;-61
2022/01/26 08:14:50;;;;;;;97.43;36.33;;;5.90;60.60;;;;;;6143916;23;19997;-60
2022/01/26 08:17:16;;;;;;;97.25;37.80;;;5.90;60.60;;;;;;6145493;23;20248;-59
2022/01/26 08:19:43;;;;;;;92.85;37.20;;;5.80;60.60;;;;;;6142533;23;20002;-60
2022/01/26 08:22:11;;;;;;;102.78;38.33;;;5.80;60.50;;;;;;6143142;23;20328;-61
2022/01/26 08:24:39;;;;;;;100.50;39.50;;;5.80;60.30;;;;;;6144247;23;19998;-60
2022/01/26 08:27:10;;;;;;;102.15;38.85;;;5.80;60.20;;;;;;6141248;23;20005;-60
2022/01/26 08:29:41;;;;;;;106.88;42.13;;;5.80;60.10;;;;;;6153491;23;20008;-60
2022/01/26 08:32:08;;;;;;;106.38;42.30;;;5.80;60.10;;;;;;6155342;23;20013;-60
2022/01/26 08:34:35;;;;;;;105.18;40.78;;;5.70;60.10;;;;;;6141978;23;20335;-59
2022/01/26 08:37:02;;;;;;;118.63;44.05;;;5.70;60.10;;;;;;6145448;23;20009;-60
2022/01/26 08:39:29;;;;;;;104.65;39.80;;;5.70;60.20;;;;;;6144151;23;20017;-60
2022/01/26 08:41:55;;;;;;;104.78;38.92;;;5.70;60.20;;;;;;6144935;23;19993;-60
2022/01/26 08:44:22;;;;;;;94.32;37.55;;;5.70;60.40;;;;;;6141187;23;20002;-59
2022/01/26 08:46:48;;;;;;;98.45;37.67;;;5.70;60.30;;;;;;6144570;23;20024;-59
2022/01/26 08:49:14;;;;;;;100.65;37.85;;;5.60;60.00;;;;;;6145487;23;20001;-60
2022/01/26 08:51:40;;;;;;;112.40;40.33;;;5.60;60.00;;;;;;6144837;23;20009;-60
2022/01/26 08:54:08;;;;;;;109.25;40.83;;;5.60;60.10;;;;;;6152694;23;20040;-59
2022/01/26 08:56:34;;;;;;;112.95;40.20;;;5.50;59.90;;;;;;6145527;23;20028;-59
2022/01/26 08:59:00;;;;;;;112.57;42.58;;;5.50;60.00;;;;;;6142747;23;20005;-60
2022/01/26 09:01:26;;;;;;;116.43;41.70;;;5.50;60.10;;;;;;6142609;23;20016;-60
2022/01/26 09:03:52;;;;;;;114.18;41.25;;;5.50;60.20;;;;;;6144393;23;20006;-59
2022/01/26 09:06:18;;;;;;;105.93;40.08;;;5.50;60.30;;;;;;6142688;23;20029;-60
2022/01/26 09:08:50;;;;;;;113.32;40.40;;;5.50;60.40;;;;;;6142866;23;20014;-59
2022/01/26 09:11:21;;;;;;;114.43;41.40;;;5.50;60.50;;;;;;6151371;23;19998;-59
2022/01/26 09:13:51;;;;;;;109.18;40.42;;;5.50;60.60;;;;;;6138721;23;20005;-59
2022/01/26 09:16:19;;;;;;;118.50;43.80;;;5.50;60.50;;;;;;6140147;23;20014;-59
2022/01/26 09:18:51;;;;;;;123.40;44.42;;;5.50;60.50;;;;;;6145058;23;19998;-60
2022/01/26 09:21:18;;;;;;;108.88;40.17;;;5.40;60.60;;;;;;6155361;23;20012;-59
2022/01/26 09:23:45;;;;;;;124.97;44.95;;;5.40;60.50;;;;;;6144710;23;20002;-58
2022/01/26 09:26:11;;;;;;;134.45;45.10;;;5.40;60.60;;;;;;6144555;23;20013;-59
2022/01/26 09:28:37;;;;;;;120.97;42.97;;;5.40;60.90;;;;;;6143112;23;20009;-59
2022/01/26 09:31:04;;;;;;;126.78;43.35;;;5.30;61.00;;;;;;6145557;23;20005;-60
2022/01/26 09:33:30;;;;;;;133.40;45.65;;;5.30;61.00;;;;;;6144976;23;20028;-59
2022/01/26 09:35:56;;;;;;;121.03;42.50;;;5.30;60.90;;;;;;6143751;23;20012;-59
2022/01/26 09:38:22;;;;;;;122.82;42.47;;;5.30;61.00;;;;;;6144746;23;20438;-60
2022/01/26 09:40:49;;;;;;;117.03;44.25;;;5.30;61.10;;;;;;6144959;23;20402;-59
2022/01/26 09:43:17;;;;;;;124.22;44.25;;;5.30;61.20;;;;;;6142966;23;20005;-59
2022/01/26 09:45:46;;;;;;;126.30;44.47;;;5.30;61.20;;;;;;6145064;23;20012;-59
2022/01/26 09:48:13;;;;;;;132.82;44.88;;;5.30;61.20;;;;;;6143025;23;20005;-59
2022/01/26 09:50:44;;;;;;;130.88;45.08;;;5.30;61.10;;;;;;6145468;23;20004;-60
2022/01/26 09:53:16;;;;;;;133.73;46.75;;;5.30;61.00;;;;;;6146273;23;20465;-58
2022/01/26 09:55:43;;;;;;;125.45;45.70;;;5.30;61.00;;;;;;6154590;23;19998;-59
2022/01/26 09:58:11;;;;;;;132.27;44.85;;;5.40;61.10;;;;;;6143616;23;20005;-60
2022/01/26 10:00:37;;;;;;;121.03;44.17;;;5.40;61.10;;;;;;6144878;23;19994;-59
2022/01/26 10:03:05;;;;;;;136.40;45.97;;;5.40;61.20;;;;;;6143394;23;20001;-60
2022/01/26 10:05:40;;;;;;;124.18;44.45;;;5.40;61.00;;;;;;6144352;23;20176;-60
2022/01/26 10:15:27;;;;;;;125.45;44.95;;;5.50;61.00;;;;;;6145073;23;20017;-60
2022/01/26 10:19:19;;;;;;;114.38;40.13;;;5.60;61.00;;;;;;6135655;23;20017;-59
2022/01/26 10:21:50;;;;;;;119.05;42.85;;;5.60;60.90;;;;;;6144832;23;20010;-59
2022/01/26 10:24:20;;;;;;;128.20;43.33;;;5.60;60.90;;;;;;6153021;23;20024;-59
2022/01/26 10:26:56;;;;;;;118.20;40.30;;;5.60;60.80;;;;;;6144359;23;20013;-58
2022/01/26 10:29:23;;;;;;;119.93;42.55;;;5.70;60.90;;;;;;6153064;23;20036;-59
2022/01/26 10:31:49;;;;;;;118.20;39.95;;;5.70;61.00;;;;;;6143044;23;20010;-59
2022/01/26 10:34:24;;;;;;;114.53;39.45;;;5.70;61.00;;;;;;6142413;23;20415;-59
2022/01/26 10:36:57;;;;;;;112.28;39.58;;;5.70;61.00;;;;;;6118862;23;20005;-60
2022/01/26 10:39:31;;;;;;;109.85;39.13;;;5.70;61.00;;;;;;6154403;23;20020;-59
2022/01/26 10:42:03;;;;;;;;;;;5.80;61.10;;;;;;6143271;23;20008;-59
2022/01/26 10:44:49;;;;;;;110.35;36.25;;;5.80;61.10;;;;;;6142244;23;20263;-59
2022/01/26 10:47:27;;;;;;;119.72;38.03;;;5.80;60.80;;;;;;6145008;23;20358;-60
2022/01/26 10:50:30;;;;;;;111.68;37.63;;;5.90;60.70;;;;;;6153147;23;20005;-59
2022/01/26 10:53:09;;;;;;;120.00;40.45;;;5.80;60.70;;;;;;6142213;23;20027;-59
2022/01/26 10:55:37;;;;;;;117.30;41.10;;;5.90;60.70;;;;;;6144117;23;20001;-59
2022/01/26 10:58:06;;;;;;;116.00;39.55;;;5.90;60.80;;;;;;6143959;23;20343;-60
2022/01/26 11:00:38;;;;;;;104.63;37.20;;;5.90;60.90;;;;;;6144367;23;20005;-59
2022/01/26 11:03:05;;;;;;;104.60;36.97;;;5.90;60.80;;;;;;6142592;23;20414;-59
2022/01/26 11:05:31;;;;;;;106.53;38.42;;;5.90;60.80;;;;;;6144470;23;20339;-59
2022/01/26 11:07:59;;;;;;;114.18;39.60;;;5.90;60.90;;;;;;6144216;23;20006;-59
2022/01/26 11:10:38;;;;;;;114.25;37.95;;;5.90;60.90;;;;;;6143933;23;20001;-60
2022/01/26 11:13:06;;;;;;;104.88;36.13;;;5.90;60.90;;;;;;6143561;23;20423;-59
2022/01/26 11:15:33;;;;;;;116.25;38.15;;;5.90;61.00;;;;;;6143374;23;20002;-59
2022/01/26 11:18:08;;;;;;;107.25;37.40;;;5.90;61.70;;;;;;6144029;23;20009;-59
2022/01/26 11:20:55;;;;;;;108.13;35.58;;;6.00;61.00;;;;;;6147013;23;20016;-59
2022/01/26 11:23:35;;;;;;;106.68;36.25;;;6.00;61.00;;;;;;6144640;23;20335;-59
2022/01/26 11:26:02;;;;;;;110.57;37.65;;;6.10;61.00;;;;;;6156755;23;20008;-57
2022/01/26 11:28:29;;;;;;;94.88;35.17;;;6.00;60.90;;;;;;6143669;23;20376;-59
2022/01/26 11:30:59;;;;;;;106.97;37.33;;;6.00;61.00;;;;;;6139577;23;20008;-59
2022/01/26 11:33:27;;;;;;;102.38;35.38;;;6.00;60.90;;;;;;6141589;23;20207;-57
2022/01/26 11:35:56;;;;;;;101.30;34.90;;;6.10;61.00;;;;;;6144746;23;20005;-59
2022/01/26 11:47:40;;;;;;;92.10;33.17;;;6.10;61.00;;;;;;6110866;23;20009;-59
2022/01/26 11:50:14;;;;;;;103.95;34.42;;;6.10;60.90;;;;;;6121517;23;20439;-59
2022/01/26 11:52:45;;;;;;;94.80;36.17;;;6.10;61.00;;;;;;6131614;23;20017;-58
2022/01/26 11:55:26;;;;;;;100.35;35.67;;;6.10;61.00;;;;;;6144245;23;20005;-59
2022/01/26 11:57:54;;;;;;;110.60;35.47;;;6.00;61.00;;;;;;6142147;23;20005;-59
2022/01/26 12:00:42;;;;;;;102.03;35.38;;;6.00;61.00;;;;;;6142773;23;20010;-58
2022/01/26 12:03:34;;;;;;;98.68;34.92;;;6.00;61.00;;;;;;6145388;23;20332;-59
2022/01/26 12:06:00;;;;;;;93.38;32.85;;;6.00;61.10;;;;;;6154788;23;20008;-59
2022/01/26 12:08:38;;;;;;;97.22;33.45;;;6.00;61.10;;;;;;6144200;23;20005;-58
2022/01/26 12:11:10;;;;;;;105.85;35.28;;;6.00;61.20;;;;;;6145454;23;20453;-58
2022/01/26 12:13:38;;;;;;;104.43;35.55;;;6.00;61.20;;;;;;6141088;23;20006;-59
2022/01/26 12:16:14;;;;;;;103.10;36.22;;;6.00;61.20;;;;;;6145851;23;20430;-59
2022/01/26 12:18:52;;;;;;;120.95;37.97;;;6.00;61.40;;;;;;6154694;23;20012;-59
2022/01/26 12:43:40;;;;;;;97.57;35.25;;;6.00;61.90;;;;;;6151973;23;20025;-58
2022/01/26 12:46:09;;;;;;;100.45;35.08;;;6.00;61.90;;;;;;6155308;23;20287;-59
2022/01/26 12:48:39;;;;;;;96.78;35.92;;;6.00;61.80;;;;;;6141574;23;20005;-59
2022/01/26 12:51:07;;;;;;;87.88;32.85;;;6.00;61.70;;;;;;6145379;23;20275;-59
2022/01/26 12:53:35;;;;;;;89.85;32.95;;;6.00;61.80;;;;;;6143362;23;20069;-59
2022/01/26 12:56:10;;;;;;;93.35;32.33;;;6.00;61.80;;;;;;6145439;23;20010;-57
2022/01/26 12:58:39;;;;;;;80.82;31.70;;;6.10;61.90;;;;;;6151978;23;20297;-58
2022/01/26 13:01:10;;;;;;;83.63;32.00;;;6.10;61.90;;;;;;6145363;23;20001;-59
2022/01/26 13:03:38;;;;;;;75.15;30.52;;;6.10;61.80;;;;;;6154478;23;20005;-59
2022/01/26 13:06:14;;;;;;;75.65;29.00;;;6.10;61.90;;;;;;6145567;23;20010;-59
2022/01/26 13:08:50;;;;;;;67.65;25.90;;;6.10;61.40;;;;;;6144944;23;20002;-59
2022/01/26 13:11:23;;;;;;;69.40;25.95;;;6.10;61.30;;;;;;6144106;23;20009;-59
2022/01/26 13:13:49;;;;;;;64.32;24.83;;;6.10;61.10;;;;;;6142645;23;19997;-59
2022/01/26 13:16:19;;;;;;;66.70;25.33;;;6.10;61.10;;;;;;6142925;23;20008;-59
2022/01/26 13:24:17;;;;;;;67.40;26.00;;;6.20;61.00;;;;;;6152248;23;20017;-59
2022/01/26 13:27:01;;;;;;;59.05;24.10;;;6.20;60.90;;;;;;6153679;23;20419;-59
2022/01/26 13:35:23;;;;;;;60.08;23.13;;;6.20;60.50;;;;;;6154441;23;20009;-58
2022/01/26 13:37:48;;;;;;;62.88;23.83;;;6.20;60.30;;;;;;6144967;23;20327;-59
2022/01/26 13:45:45;;;;;;;53.85;22.77;;;6.20;59.90;;;;;;6143899;23;20002;-59
2022/01/26 13:50:54;;;;;;;56.97;23.25;;;6.20;59.80;;;;;;6148758;23;20017;-59
2022/01/26 13:53:31;;;;;;;58.10;24.17;;;6.20;59.80;;;;;;6141694;23;20017;-59
2022/01/26 13:56:14;;;;;;;61.20;24.48;;;6.20;59.80;;;;;;6153875;23;20002;-59
2022/01/26 14:01:16;;;;;;;68.07;26.92;;;6.20;59.70;;;;;;6144559;23;20001;-58
2022/01/26 14:03:45;;;;;;;74.60;26.92;;;6.20;59.70;;;;;;6152196;23;20378;-59
2022/01/26 14:06:11;;;;;;;69.88;28.10;;;6.20;59.70;;;;;;6141967;23;20002;-59
2022/01/26 14:08:38;;;;;;;77.18;28.92;;;6.20;59.70;;;;;;6143721;23;20415;-57
2022/01/26 14:11:04;;;;;;;77.97;30.33;;;6.20;59.70;;;;;;6143854;23;20001;-59
2022/01/26 14:13:31;;;;;;;77.85;29.60;;;6.20;59.70;;;;;;6142426;23;20006;-59
2022/01/26 14:15:59;;;;;;;77.85;30.65;;;6.20;59.70;;;;;;6144873;23;20004;-57
2022/01/26 14:20:56;;;;;;;82.22;32.08;;;6.20;59.70;;;;;;6153127;23;20013;-60
2022/01/26 14:25:53;;;;;;;88.70;31.83;;;6.20;59.50;;;;;;6143740;23;20002;-59
2022/01/26 14:28:23;;;;;;;85.10;33.97;;;6.20;59.50;;;;;;6139331;23;20002;-59
2022/01/26 14:54:59;;;;;;;;;;;6.10;59.60;;;;;;6153100;23;20012;-59
2022/01/26 15:35:03;;;;;;;98.53;36.28;;;5.90;59.80;;;;;;6152546;23;20001;-59
2022/01/26 15:50:48;;;;;;;105.65;38.17;;;5.80;60.30;;;;;;6126581;23;20013;-56
2022/01/26 16:07:00;;;;;;;113.40;38.00;;;5.90;60.30;;;;;;6155045;23;20013;-58
2022/01/26 16:52:22;;;;;;;105.70;38.70;;;6.00;60.30;;;;;;6152819;23;20458;-58
2022/01/26 18:16:37;;;;;;;83.00;31.15;;;5.90;60.00;;;;;;6150283;23;19904;-56
2022/01/26 18:32:56;;;;;;;82.82;29.35;;;5.90;60.00;;;;;;6152068;23;20016;-56
2022/01/26 18:46:43;;;;;;;77.43;28.88;;;6.00;59.90;;;;;;6152225;23;20311;-59
2022/01/26 18:51:42;;;;;;;69.78;27.48;;;6.00;59.70;;;;;;6146139;23;20312;-58
2022/01/26 18:54:10;;;;;;;68.45;27.90;;;5.90;59.70;;;;;;6150928;23;20009;-58
2022/01/26 18:56:39;;;;;;;67.18;26.20;;;6.00;59.80;;;;;;6142020;23;19993;-56
2022/01/26 18:59:05;;;;;;;65.50;26.65;;;5.90;59.70;;;;;;6143056;23;20010;-56
2022/01/26 19:01:33;;;;;;;63.85;26.15;;;5.90;59.70;;;;;;6141070;23;20005;-58
2022/01/26 19:03:59;;;;;;;64.45;25.77;;;6.00;59.70;;;;;;6142571;23;20013;-58
2022/01/26 19:06:25;;;;;;;60.83;25.00;;;5.90;59.70;;;;;;6141437;23;19998;-58
2022/01/26 19:08:51;;;;;;;65.93;26.63;;;6.00;59.60;;;;;;6138847;23;20434;-59
2022/01/26 19:11:20;;;;;;;64.18;25.17;;;5.90;59.60;;;;;;6144436;23;20001;-58
2022/01/26 19:13:47;;;;;;;61.97;23.90;;;5.90;59.50;;;;;;6140442;23;19997;-58